createdAt,value
2023-01-03T00:02:06.031Z,6.30
2023-01-03T00:07:08.908Z,6.26
2023-01-03T00:12:30.222Z,6.20
2023-01-03T00:17:34.148Z,6.14
2023-01-03T00:22:37.491Z,6.10
2023-01-03T00:27:40.903Z,6.06
2023-01-03T00:32:45.388Z,6.06
2023-01-03T00:37:48.325Z,6.07
2023-01-03T00:43:09.466Z,6.05
2023-01-03T00:48:12.412Z,6.07
2023-01-03T00:53:15.389Z,6.13
2023-01-03T00:58:18.240Z,6.19
2023-01-03T01:03:21.351Z,6.21
2023-01-03T01:08:24.470Z,6.22
2023-01-03T01:13:32.002Z,6.19
2023-01-03T01:18:37.374Z,6.16
2023-01-03T01:23:41.821Z,6.16
2023-01-03T01:28:45.123Z,6.06
2023-01-03T01:33:48.661Z,5.97
2023-01-03T01:39:04.015Z,5.85
2023-01-03T01:44:39.988Z,5.73
2023-01-03T01:49:44.290Z,5.56
2023-01-03T01:54:49.948Z,5.42
2023-01-03T01:59:52.830Z,5.26
2023-01-03T02:04:57.635Z,5.14
2023-01-03T02:10:01.007Z,5.09
2023-01-03T02:15:50.795Z,4.98
2023-01-03T02:21:50.289Z,4.91
2023-01-03T02:27:20.693Z,4.82
2023-01-03T02:32:33.650Z,4.78
2023-01-03T02:37:52.342Z,4.77
2023-01-03T02:43:05.651Z,4.76
2023-01-03T02:48:20.338Z,4.74
2023-01-03T02:53:35.162Z,4.69
2023-01-03T02:58:40.641Z,4.73
2023-01-03T03:03:44.971Z,4.81
2023-01-03T03:08:49.015Z,4.84
2023-01-03T03:14:00.145Z,4.83
2023-01-03T03:19:50.970Z,4.79
2023-01-03T03:24:57.568Z,4.73
2023-01-03T03:30:03.982Z,4.66
2023-01-03T03:35:12.454Z,4.61
2023-01-03T03:40:34.042Z,4.55
2023-01-03T03:46:05.907Z,4.47
2023-01-03T03:51:17.678Z,4.36
2023-01-03T03:56:25.179Z,4.23
2023-01-03T04:01:30.044Z,4.05
2023-01-03T04:06:43.661Z,3.91
2023-01-03T04:11:46.573Z,3.77
2023-01-03T04:16:49.618Z,3.66
2023-01-03T04:21:52.568Z,3.52
2023-01-03T04:26:55.390Z,3.39
2023-01-03T04:31:58.308Z,3.29
2023-01-03T04:37:01.904Z,3.30
2023-01-03T04:42:43.912Z,3.31
2023-01-03T04:47:46.911Z,3.36
2023-01-03T04:52:49.943Z,3.46
2023-01-03T04:57:52.874Z,3.49
2023-01-03T05:02:55.810Z,3.50
2023-01-03T05:07:58.596Z,3.55
2023-01-03T05:13:01.586Z,3.60
2023-01-03T05:18:05.671Z,3.66
2023-01-03T05:23:33.005Z,3.66
2023-01-03T05:28:36.400Z,3.70
2023-01-03T05:33:40.928Z,3.69
2023-01-03T05:38:44.014Z,3.81
2023-01-03T05:43:46.856Z,3.75
2023-01-03T05:48:49.762Z,3.71
2023-01-03T05:53:52.698Z,3.65
2023-01-03T05:58:55.684Z,3.56
2023-01-03T06:03:58.896Z,3.58
2023-01-03T06:09:01.912Z,3.60
2023-01-03T06:14:04.751Z,3.66
2023-01-03T06:19:08.363Z,3.72
2023-01-03T06:24:12.037Z,3.89
2023-01-03T06:29:14.825Z,4.26
2023-01-03T06:34:17.810Z,4.52
2023-01-03T06:39:21.260Z,4.70
2023-01-03T06:44:24.263Z,4.83
2023-01-03T06:49:45.492Z,4.90
2023-01-03T06:54:48.965Z,5.02
2023-01-03T06:59:51.728Z,5.22
2023-01-03T07:04:54.774Z,5.36
2023-01-03T07:09:57.970Z,5.58
2023-01-03T07:15:00.833Z,5.90
2023-01-03T07:20:04.025Z,6.03
2023-01-03T07:25:07.543Z,6.05
2023-01-03T07:30:11.268Z,5.98
2023-01-03T07:35:14.263Z,5.96
2023-01-03T07:40:17.301Z,5.99
2023-01-03T07:45:20.227Z,5.96
2023-01-03T07:50:23.224Z,5.95
2023-01-03T07:55:26.234Z,6.00
2023-01-03T08:00:29.283Z,6.04
2023-01-03T08:05:34.575Z,6.06
2023-01-03T08:10:55.837Z,6.15
2023-01-03T08:15:59.106Z,6.27
2023-01-03T08:21:02.083Z,6.41
2023-01-03T08:26:17.117Z,6.55
2023-01-03T08:31:25.648Z,6.64
2023-01-03T08:36:40.451Z,6.76
2023-01-03T08:41:51.690Z,6.82
2023-01-03T08:46:57.070Z,6.91
2023-01-03T08:51:59.980Z,6.95
2023-01-03T08:57:02.873Z,6.97
2023-01-03T09:02:06.652Z,7.08
2023-01-03T09:07:10.074Z,7.17
2023-01-03T09:12:12.949Z,7.20
2023-01-03T09:17:15.923Z,7.39
2023-01-03T09:22:18.765Z,7.59
2023-01-03T09:27:22.151Z,7.77
2023-01-03T09:32:25.213Z,8.02
2023-01-03T09:37:28.260Z,8.21
2023-01-03T09:42:50.166Z,8.31
2023-01-03T09:47:53.121Z,8.49
2023-01-03T09:53:15.415Z,8.73
2023-01-03T09:58:36.460Z,9.01
2023-01-03T10:04:05.493Z,9.18
2023-01-03T10:09:29.171Z,9.22
2023-01-03T10:14:38.145Z,9.13
2023-01-03T10:19:59.805Z,8.98
2023-01-03T10:25:05.402Z,8.84
2023-01-03T10:30:19.591Z,8.60
2023-01-03T10:35:28.130Z,8.48
2023-01-03T10:40:51.623Z,8.39
2023-01-03T10:46:05.023Z,8.39
2023-01-03T10:51:46.814Z,8.27
2023-01-03T10:56:51.320Z,8.30
2023-01-03T11:02:03.486Z,8.39
2023-01-03T11:07:09.656Z,8.50
2023-01-03T11:12:29.342Z,8.61
2023-01-03T11:17:32.392Z,8.70
2023-01-03T11:22:46.488Z,8.79
2023-01-03T11:28:04.330Z,8.88
2023-01-03T11:33:29.800Z,8.83
2023-01-03T11:39:26.348Z,8.71
2023-01-03T11:45:05.635Z,8.65
2023-01-03T11:50:34.417Z,8.53
2023-01-03T11:56:09.728Z,8.46
2023-01-03T12:01:26.832Z,8.46
2023-01-03T12:13:11.492Z,8.41
2023-01-03T12:18:14.792Z,8.37
2023-01-03T12:23:23.263Z,8.36
2023-01-03T12:28:41.646Z,8.22
2023-01-03T12:34:21.369Z,8.18
2023-01-03T12:39:41.765Z,8.22
2023-01-03T12:44:59.110Z,8.29
2023-01-03T12:50:30.796Z,8.36
2023-01-03T12:56:02.105Z,8.37
2023-01-03T13:01:53.851Z,8.28
2023-01-03T13:07:30.390Z,8.10
2023-01-03T13:12:35.797Z,7.97
2023-01-03T13:17:48.887Z,7.98
2023-01-03T13:23:01.196Z,7.97
2023-01-03T13:28:27.365Z,7.97
2023-01-03T13:33:53.808Z,7.93
2023-01-03T13:38:56.987Z,7.86
2023-01-03T13:44:22.204Z,7.78
2023-01-03T13:49:28.524Z,7.70
2023-01-03T13:54:55.356Z,7.69
2023-01-03T14:00:01.954Z,7.70
2023-01-03T14:05:57.555Z,7.74
2023-01-03T14:11:48.313Z,7.77
2023-01-03T14:16:58.180Z,7.68
2023-01-03T14:22:28.045Z,7.58
2023-01-03T14:27:40.721Z,7.44
2023-01-03T14:32:43.859Z,7.38
2023-01-03T14:37:47.258Z,7.38
2023-01-03T14:42:50.484Z,7.48
2023-01-03T14:47:55.435Z,7.60
2023-01-03T14:53:02.294Z,7.73
2023-01-03T14:58:41.276Z,7.89
2023-01-03T15:03:47.589Z,7.93
2023-01-03T15:08:54.723Z,8.02
2023-01-03T15:14:07.032Z,8.08
2023-01-03T15:19:29.609Z,8.13
2023-01-03T15:24:42.984Z,8.19
2023-01-03T15:29:46.574Z,8.19
2023-01-03T15:34:50.096Z,8.23
2023-01-03T15:39:56.653Z,8.23
2023-01-03T15:45:00.418Z,8.15
2023-01-03T15:50:06.512Z,8.14
2023-01-03T15:55:14.545Z,8.10
2023-01-03T16:00:22.688Z,8.13
2023-01-03T16:05:25.788Z,8.13
2023-01-03T16:10:29.026Z,8.14
2023-01-03T16:15:32.474Z,8.07
2023-01-03T16:20:36.775Z,8.00
2023-01-03T16:25:39.881Z,7.96
2023-01-03T16:30:43.085Z,8.03
2023-01-03T16:35:47.805Z,8.11
2023-01-03T16:40:51.667Z,8.21
2023-01-03T16:45:59.914Z,8.25
2023-01-03T16:51:02.974Z,8.24
2023-01-03T16:56:11.544Z,8.25
2023-01-03T17:01:14.725Z,8.25
2023-01-03T17:06:37.595Z,8.23
2023-01-03T17:11:41.555Z,8.22
2023-01-03T17:16:44.964Z,8.17
2023-01-03T17:21:51.424Z,8.16
2023-01-03T17:27:03.736Z,8.16
2023-01-03T17:32:20.324Z,8.10
2023-01-03T17:37:23.937Z,8.07
2023-01-03T17:42:28.904Z,8.04
2023-01-03T17:47:51.640Z,7.99
2023-01-03T17:52:56.248Z,7.93
2023-01-03T17:58:04.523Z,7.84
2023-01-03T18:03:07.534Z,7.77
2023-01-03T18:08:21.811Z,7.66
2023-01-03T18:13:31.214Z,7.60
2023-01-03T18:18:34.222Z,7.53
2023-01-03T18:23:38.657Z,7.49
2023-01-03T18:28:41.799Z,7.41
2023-01-03T18:33:45.288Z,7.39
2023-01-03T18:38:48.300Z,7.34
2023-01-03T18:43:53.339Z,7.34
2023-01-03T18:48:56.452Z,7.32
2023-01-03T18:54:00.000Z,7.30
2023-01-03T18:59:21.397Z,7.24
2023-01-03T19:04:24.480Z,7.18
2023-01-03T19:09:29.560Z,7.18
2023-01-03T19:14:32.974Z,7.20
2023-01-03T19:19:35.897Z,7.23
2023-01-03T19:24:39.794Z,7.27
2023-01-03T19:29:43.898Z,7.27
2023-01-03T19:34:47.076Z,7.23
2023-01-03T19:39:50.552Z,7.18
2023-01-03T19:44:54.617Z,7.16
2023-01-03T19:49:58.303Z,7.13
2023-01-03T19:55:01.265Z,7.09
2023-01-03T20:00:05.599Z,7.03
2023-01-03T20:05:30.263Z,7.05
2023-01-03T20:10:39.604Z,7.02
2023-01-03T20:15:45.523Z,7.04
2023-01-03T20:20:49.240Z,7.06
2023-01-03T20:25:54.977Z,7.05
2023-01-03T20:30:59.755Z,7.00
2023-01-03T20:36:16.273Z,6.98
2023-01-03T20:41:36.547Z,7.00
2023-01-03T20:46:40.376Z,6.96
2023-01-03T20:51:43.460Z,6.96
2023-01-03T20:56:47.149Z,6.94
2023-01-03T21:01:51.143Z,6.88
2023-01-03T21:06:54.613Z,6.87
2023-01-03T21:11:57.634Z,6.81
2023-01-03T21:17:00.663Z,6.77
2023-01-03T21:22:14.926Z,6.72
2023-01-03T21:27:17.975Z,6.70
2023-01-03T21:32:20.973Z,6.67
2023-01-03T21:37:24.773Z,6.63
2023-01-03T21:42:46.041Z,6.60
2023-01-03T21:47:49.033Z,6.58
2023-01-03T21:52:52.977Z,6.58
2023-01-03T21:57:56.005Z,6.59
2023-01-03T22:03:17.804Z,6.61
2023-01-03T22:08:20.733Z,6.65
2023-01-03T22:13:23.690Z,6.69
2023-01-03T22:18:28.429Z,6.72
2023-01-03T22:23:31.621Z,6.69
2023-01-03T22:28:37.558Z,6.67
2023-01-03T22:33:40.563Z,6.64
2023-01-03T22:38:44.179Z,6.58
2023-01-03T22:43:47.219Z,6.55
2023-01-03T22:48:50.279Z,6.56
2023-01-03T22:53:54.538Z,6.56
2023-01-03T22:58:57.520Z,6.52
2023-01-03T23:04:01.543Z,6.49
2023-01-03T23:09:06.010Z,6.48
2023-01-03T23:14:12.211Z,6.41
2023-01-03T23:19:22.068Z,6.46
2023-01-03T23:24:25.352Z,6.52
2023-01-03T23:29:28.506Z,6.43
2023-01-03T23:34:32.564Z,6.32
2023-01-03T23:39:35.693Z,6.10
2023-01-03T23:44:38.597Z,5.98
2023-01-03T23:49:41.641Z,5.89
2023-01-03T23:54:44.650Z,5.84
2023-01-03T23:59:47.815Z,5.86
